createdAt,value
2016-06-25T00:00:02.194Z,0
2016-06-25T00:01:04.100Z,0
2016-06-25T00:02:03.472Z,0
2016-06-25T00:03:03.433Z,0
2016-06-25T00:04:03.407Z,0
2016-06-25T00:05:04.034Z,0
2016-06-25T00:06:03.385Z,0
2016-06-25T00:07:04.007Z,0
2016-06-25T00:08:03.359Z,0
2016-06-25T00:09:03.333Z,0
2016-06-25T00:10:03.958Z,0
2016-06-25T00:11:03.968Z,0
2016-06-25T00:12:03.301Z,0
2016-06-25T00:13:03.277Z,0
2016-06-25T00:14:02.613Z,0
2016-06-25T00:15:03.888Z,0
2016-06-25T00:16:03.908Z,0
2016-06-25T00:17:03.223Z,0
2016-06-25T00:18:03.206Z,0
2016-06-25T00:19:03.186Z,0
2016-06-25T00:20:03.178Z,0
2016-06-25T00:21:03.826Z,0
2016-06-25T00:22:03.153Z,0
2016-06-25T00:23:03.193Z,0
2016-06-25T00:24:02.484Z,0
2016-06-25T00:25:03.771Z,0
2016-06-25T00:26:03.720Z,0
2016-06-25T00:27:03.706Z,0
2016-06-25T00:28:03.063Z,0
2016-06-25T00:29:03.056Z,0
2016-06-25T00:30:03.682Z,0
2016-06-25T00:31:02.373Z,0
2016-06-25T00:32:03.649Z,0
2016-06-25T00:33:02.365Z,0
2016-06-25T00:34:03.618Z,0
2016-06-25T00:35:03.604Z,0
2016-06-25T00:36:03.585Z,0
2016-06-25T00:37:02.936Z,0
2016-06-25T00:38:03.571Z,0
2016-06-25T00:39:02.898Z,0
2016-06-25T00:40:03.510Z,0
2016-06-25T00:41:02.862Z,0
2016-06-25T00:42:03.532Z,0
2016-06-25T00:43:02.852Z,0
2016-06-25T00:44:02.813Z,0
2016-06-25T00:45:02.847Z,0
2016-06-25T00:46:03.436Z,0
2016-06-25T00:47:03.417Z,0
2016-06-25T00:48:03.395Z,0
2016-06-25T00:49:03.399Z,0
2016-06-25T00:50:02.743Z,0
2016-06-25T00:51:03.340Z,0
2016-06-25T00:52:02.071Z,0
2016-06-25T00:53:03.321Z,0
2016-06-25T00:54:03.337Z,0
2016-06-25T00:55:03.297Z,0
2016-06-25T00:56:02.650Z,0
2016-06-25T00:57:02.633Z,0
2016-06-25T00:58:01.989Z,0
2016-06-25T00:59:03.262Z,0
2016-06-25T01:00:03.237Z,0
2016-06-25T01:01:03.273Z,0
2016-06-25T01:02:01.930Z,0
2016-06-25T01:03:03.199Z,0
2016-06-25T01:04:03.169Z,0
2016-06-25T01:05:02.506Z,0
2016-06-25T01:06:02.515Z,0
2016-06-25T01:07:02.474Z,0
2016-06-25T01:08:02.463Z,0
2016-06-25T01:09:03.079Z,0
2016-06-25T01:10:02.441Z,0
2016-06-25T01:11:02.411Z,0
2016-06-25T01:12:02.451Z,0
2016-06-25T01:13:02.382Z,0
2016-06-25T01:14:02.397Z,0
2016-06-25T01:15:02.361Z,0
2016-06-25T01:16:02.344Z,0
2016-06-25T01:17:02.963Z,0
2016-06-25T01:18:02.956Z,0
2016-06-25T01:19:02.938Z,0
2016-06-25T01:20:02.297Z,0
2016-06-25T01:21:02.293Z,0
2016-06-25T01:22:02.886Z,0
2016-06-25T01:23:02.911Z,0
2016-06-25T01:24:01.595Z,0
2016-06-25T01:25:02.843Z,0
2016-06-25T01:26:02.840Z,0
2016-06-25T01:27:02.826Z,0
2016-06-25T01:28:01.529Z,0
2016-06-25T01:29:02.153Z,0
2016-06-25T01:30:02.154Z,0
2016-06-25T01:31:02.776Z,0
2016-06-25T01:32:02.756Z,0
2016-06-25T01:33:02.743Z,0
2016-06-25T01:34:01.460Z,0
2016-06-25T01:35:02.719Z,0
2016-06-25T01:36:02.043Z,0
2016-06-25T01:37:02.680Z,0
2016-06-25T01:38:02.024Z,0
2016-06-25T01:39:02.656Z,0
2016-06-25T01:40:01.992Z,0
2016-06-25T01:41:01.977Z,0
2016-06-25T01:42:01.969Z,0
2016-06-25T01:43:01.947Z,0
2016-06-25T01:44:01.290Z,0
2016-06-25T01:45:02.563Z,0
2016-06-25T01:46:01.888Z,0
2016-06-25T01:47:01.253Z,0
2016-06-25T01:48:01.234Z,0
2016-06-25T01:49:01.866Z,0
2016-06-25T01:50:02.485Z,0
2016-06-25T01:51:01.844Z,0
2016-06-25T01:52:00.519Z,0
2016-06-25T01:53:01.805Z,0
2016-06-25T01:54:02.405Z,0
2016-06-25T01:55:01.771Z,0
2016-06-25T01:56:02.378Z,0
2016-06-25T01:57:01.106Z,0
2016-06-25T01:58:01.725Z,0
2016-06-25T01:59:02.389Z,0
2016-06-25T02:00:01.695Z,0
2016-06-25T02:01:01.686Z,0
2016-06-25T02:02:01.658Z,0
2016-06-25T02:03:02.290Z,0
2016-06-25T02:04:02.271Z,0
2016-06-25T02:05:02.262Z,0
2016-06-25T02:06:01.595Z,0
2016-06-25T02:07:02.249Z,0
2016-06-25T02:08:02.238Z,0
2016-06-25T02:09:02.203Z,0
2016-06-25T02:10:02.174Z,0
2016-06-25T02:11:01.534Z,0
2016-06-25T02:12:00.878Z,0
2016-06-25T02:13:01.499Z,0
2016-06-25T02:14:02.137Z,0
2016-06-25T02:15:02.121Z,0
2016-06-25T02:16:00.807Z,0
2016-06-25T02:17:02.079Z,0
2016-06-25T02:18:00.148Z,0
2016-06-25T02:19:02.053Z,0
2016-06-25T02:20:02.034Z,0
2016-06-25T02:21:01.378Z,0
2016-06-25T02:22:02.035Z,0
2016-06-25T02:23:02.003Z,0
2016-06-25T02:24:01.327Z,0
2016-06-25T02:25:01.988Z,0
2016-06-25T02:26:01.309Z,0
2016-06-25T02:27:01.295Z,0
2016-06-25T02:28:01.917Z,0
2016-06-25T02:29:01.915Z,0
2016-06-25T02:30:01.259Z,0
2016-06-25T02:31:01.886Z,0
2016-06-25T02:32:00.599Z,0
2016-06-25T02:33:01.867Z,0
2016-06-25T02:34:01.851Z,0
2016-06-25T02:35:00.540Z,0
2016-06-25T02:36:01.792Z,0
2016-06-25T02:37:01.160Z,0
2016-06-25T02:38:01.802Z,0
2016-06-25T02:39:01.119Z,0
2016-06-25T02:39:59.827Z,0
2016-06-25T02:41:01.100Z,0
2016-06-25T02:42:01.723Z,0
2016-06-25T02:43:01.698Z,0
2016-06-25T02:43:59.774Z,0
2016-06-25T02:45:01.668Z,0
2016-06-25T02:46:00.358Z,0
2016-06-25T02:47:01.664Z,0
2016-06-25T02:48:01.601Z,0
2016-06-25T02:49:00.325Z,0
2016-06-25T02:50:00.964Z,0
2016-06-25T02:51:00.921Z,0
2016-06-25T02:52:00.916Z,0
2016-06-25T02:53:00.899Z,0
2016-06-25T02:54:00.915Z,0
2016-06-25T02:55:01.497Z,0
2016-06-25T02:56:01.509Z,0
2016-06-25T02:57:01.487Z,0
2016-06-25T02:58:01.472Z,0
2016-06-25T02:59:00.797Z,0
2016-06-25T03:00:01.438Z,0
2016-06-25T03:01:00.772Z,0
2016-06-25T03:02:01.431Z,0
2016-06-25T03:03:00.107Z,0
2016-06-25T03:04:01.381Z,0
2016-06-25T03:05:00.729Z,0
2016-06-25T03:06:00.706Z,0
2016-06-25T03:07:00.068Z,0
2016-06-25T03:08:01.317Z,0
2016-06-25T03:09:01.308Z,0
2016-06-25T03:10:00.031Z,0
2016-06-25T03:11:00.864Z,0
2016-06-25T03:12:01.256Z,0
2016-06-25T03:13:01.292Z,0
2016-06-25T03:14:01.220Z,0
2016-06-25T03:15:00.565Z,0
2016-06-25T03:16:01.195Z,0
2016-06-25T03:17:01.407Z,0
2016-06-25T03:18:01.533Z,0
2016-06-25T03:19:01.154Z,0
2016-06-25T03:20:00.607Z,0
2016-06-25T03:21:01.497Z,0
2016-06-25T03:22:00.506Z,0
2016-06-25T03:22:59.830Z,0
2016-06-25T03:24:00.439Z,0
2016-06-25T03:25:01.083Z,0
2016-06-25T03:26:01.063Z,0
2016-06-25T03:27:01.041Z,0
2016-06-25T03:28:01.017Z,0
2016-06-25T03:28:59.746Z,0
2016-06-25T03:30:00.361Z,0
2016-06-25T03:31:00.990Z,0
2016-06-25T03:31:59.693Z,0
2016-06-25T03:33:00.963Z,0
2016-06-25T03:34:00.296Z,0
2016-06-25T03:34:59.654Z,0
2016-06-25T03:36:00.250Z,0
2016-06-25T03:36:58.987Z,0
2016-06-25T03:38:00.244Z,0
2016-06-25T03:39:00.860Z,0
2016-06-25T03:40:00.865Z,0
2016-06-25T03:41:00.821Z,0
2016-06-25T03:42:00.178Z,0
2016-06-25T03:43:00.794Z,0
2016-06-25T03:44:00.787Z,0
2016-06-25T03:45:00.122Z,0
2016-06-25T03:46:00.109Z,0
2016-06-25T03:47:00.095Z,0
2016-06-25T03:48:00.082Z,0
2016-06-25T03:49:00.700Z,0
2016-06-25T03:50:00.698Z,0
2016-06-25T03:51:00.022Z,0
2016-06-25T03:52:00.020Z,0
2016-06-25T03:53:00.651Z,0
2016-06-25T03:54:00.629Z,0
2016-06-25T03:55:00.623Z,0
2016-06-25T03:55:59.311Z,0
2016-06-25T03:57:00.580Z,0
2016-06-25T03:58:00.571Z,0
2016-06-25T03:58:59.270Z,0
2016-06-25T04:00:00.548Z,0
2016-06-25T04:01:00.533Z,0
2016-06-25T04:02:00.520Z,0
2016-06-25T04:03:00.505Z,0
2016-06-25T04:04:00.493Z,0
2016-06-25T04:04:59.189Z,0
2016-06-25T04:05:59.177Z,0
2016-06-25T04:06:59.786Z,0
2016-06-25T04:07:59.146Z,0
2016-06-25T04:08:59.120Z,0
2016-06-25T04:09:59.754Z,0
2016-06-25T04:10:59.774Z,0
2016-06-25T04:11:59.732Z,0
2016-06-25T04:12:59.711Z,0
2016-06-25T04:13:59.054Z,0
2016-06-25T04:14:59.653Z,0
2016-06-25T04:16:00.354Z,0
2016-06-25T04:17:00.282Z,0
2016-06-25T04:18:00.287Z,0
2016-06-25T04:18:59.628Z,0
2016-06-25T04:19:58.989Z,0
2016-06-25T04:21:00.211Z,0
2016-06-25T04:22:00.224Z,0
2016-06-25T04:22:59.569Z,0
2016-06-25T04:23:59.540Z,0
2016-06-25T04:24:58.899Z,0
2016-06-25T04:25:59.527Z,0
2016-06-25T04:27:00.133Z,0
2016-06-25T04:28:00.170Z,0
2016-06-25T04:29:00.123Z,0
2016-06-25T04:29:59.471Z,0
2016-06-25T04:31:00.061Z,0
2016-06-25T04:31:59.426Z,0
2016-06-25T04:32:59.401Z,0
2016-06-25T04:33:58.771Z,0
2016-06-25T04:35:00.018Z,0
2016-06-25T04:35:59.359Z,0
2016-06-25T04:36:59.989Z,0
2016-06-25T04:37:58.680Z,0
2016-06-25T04:38:59.299Z,0
2016-06-25T04:39:59.307Z,0
2016-06-25T04:40:59.937Z,0
2016-06-25T04:41:59.924Z,0
2016-06-25T04:42:59.257Z,0
2016-06-25T04:43:59.255Z,0
2016-06-25T04:44:59.231Z,0
2016-06-25T04:45:59.858Z,0
2016-06-25T04:46:59.209Z,4
2016-06-25T04:47:57.892Z,0
2016-06-25T04:48:59.795Z,4
2016-06-25T04:49:59.858Z,4
2016-06-25T04:50:59.812Z,4
2016-06-25T04:51:59.782Z,4
2016-06-25T04:52:59.096Z,4
2016-06-25T04:53:59.742Z,8
2016-06-25T04:54:59.745Z,8
2016-06-25T04:55:59.079Z,8
2016-06-25T04:56:58.391Z,12
2016-06-25T04:57:59.684Z,16
2016-06-25T04:58:59.026Z,16
2016-06-25T04:59:59.665Z,16
2016-06-25T05:00:58.349Z,20
2016-06-25T05:01:59.607Z,24
2016-06-25T05:02:58.952Z,32
2016-06-25T05:03:59.606Z,36
2016-06-25T05:04:58.925Z,44
2016-06-25T05:05:58.918Z,48
2016-06-25T05:06:58.907Z,56
2016-06-25T05:07:59.533Z,60
2016-06-25T05:08:59.507Z,68
2016-06-25T05:09:58.866Z,76
2016-06-25T05:10:58.838Z,84
2016-06-25T05:11:58.815Z,96
2016-06-25T05:12:58.176Z,104
2016-06-25T05:13:59.412Z,116
2016-06-25T05:14:58.171Z,128
2016-06-25T05:15:59.403Z,140
2016-06-25T05:16:58.119Z,152
2016-06-25T05:17:58.750Z,164
2016-06-25T05:18:58.059Z,184
2016-06-25T05:19:57.418Z,196
2016-06-25T05:20:58.066Z,220
2016-06-25T05:21:59.306Z,236
2016-06-25T05:22:59.291Z,252
2016-06-25T05:23:59.290Z,280
2016-06-25T05:24:58.650Z,300
2016-06-25T05:25:59.238Z,332
2016-06-25T05:26:59.242Z,356
2016-06-25T05:27:59.224Z,392
2016-06-25T05:28:58.573Z,424
2016-06-25T05:29:58.562Z,448
2016-06-25T05:30:58.533Z,476
2016-06-25T05:31:59.170Z,504
2016-06-25T05:32:58.542Z,528
2016-06-25T05:33:59.128Z,552
2016-06-25T05:34:59.120Z,576
2016-06-25T05:35:58.464Z,604
2016-06-25T05:36:58.454Z,636
2016-06-25T05:37:58.430Z,672
2016-06-25T05:38:59.058Z,708
2016-06-25T05:39:58.403Z,736
2016-06-25T05:40:59.035Z,772
2016-06-25T05:41:58.384Z,812
2016-06-25T05:42:58.359Z,860
2016-06-25T05:43:58.970Z,896
2016-06-25T05:44:58.968Z,932
2016-06-25T05:45:58.939Z,980
2016-06-25T05:46:58.942Z,1020
2016-06-25T05:47:58.287Z,1088
2016-06-25T05:48:58.908Z,1160
2016-06-25T05:49:57.604Z,1196
2016-06-25T05:50:58.241Z,1224
2016-06-25T05:51:58.230Z,1252
2016-06-25T05:52:58.850Z,1288
2016-06-25T05:53:58.850Z,1324
2016-06-25T05:54:58.800Z,1372
2016-06-25T05:55:58.166Z,1420
2016-06-25T05:56:58.155Z,1452
2016-06-25T05:57:57.489Z,1496
2016-06-25T05:58:57.480Z,1528
2016-06-25T05:59:58.755Z,1560
2016-06-25T06:00:58.719Z,1576
2016-06-25T06:01:58.070Z,1612
2016-06-25T06:02:58.699Z,1640
2016-06-25T06:03:56.766Z,1624
2016-06-25T06:04:58.672Z,1616
2016-06-25T06:05:58.643Z,1620
2016-06-25T06:06:57.993Z,1620
2016-06-25T06:07:57.356Z,1652
2016-06-25T06:08:57.982Z,1716
2016-06-25T06:09:57.332Z,1700
2016-06-25T06:10:57.937Z,1704
2016-06-25T06:11:57.287Z,1708
2016-06-25T06:12:57.918Z,1704
2016-06-25T06:13:57.906Z,1724
2016-06-25T06:14:58.522Z,1744
2016-06-25T06:15:58.510Z,1764
2016-06-25T06:16:58.504Z,1764
2016-06-25T06:17:57.202Z,1764
2016-06-25T06:18:57.790Z,1788
2016-06-25T06:19:57.170Z,1784
2016-06-25T06:20:58.419Z,1788
2016-06-25T06:21:57.793Z,1780
2016-06-25T06:22:57.757Z,1780
2016-06-25T06:23:58.397Z,1772
2016-06-25T06:24:58.362Z,1792
2016-06-25T06:25:58.384Z,1764
2016-06-25T06:26:58.346Z,1728
2016-06-25T06:27:58.315Z,1792
2016-06-25T06:28:57.673Z,1788
2016-06-25T06:29:57.018Z,1824
2016-06-25T06:30:56.998Z,1880
2016-06-25T06:31:58.263Z,1928
2016-06-25T06:32:57.604Z,1996
2016-06-25T06:33:58.252Z,2052
2016-06-25T06:34:56.949Z,2128
2016-06-25T06:35:58.216Z,2156
2016-06-25T06:36:56.278Z,2224
2016-06-25T06:37:58.189Z,2308
2016-06-25T06:38:57.538Z,2372
2016-06-25T06:39:57.494Z,2436
2016-06-25T06:40:56.853Z,2492
2016-06-25T06:41:58.136Z,2500
2016-06-25T06:42:57.458Z,2500
2016-06-25T06:43:58.071Z,2568
2016-06-25T06:44:57.419Z,2624
2016-06-25T06:45:58.046Z,2672
2016-06-25T06:46:57.400Z,2696
2016-06-25T06:47:57.393Z,2720
2016-06-25T06:48:57.391Z,2764
2016-06-25T06:49:57.363Z,2812
2016-06-25T06:50:57.345Z,2860
2016-06-25T06:51:57.356Z,2868
2016-06-25T06:52:57.307Z,2896
2016-06-25T06:53:57.947Z,2920
2016-06-25T06:54:57.936Z,2944
2016-06-25T06:55:57.901Z,2984
2016-06-25T06:56:57.263Z,3052
2016-06-25T06:57:56.629Z,3064
2016-06-25T06:58:55.964Z,3160
2016-06-25T06:59:57.198Z,3320
2016-06-25T07:00:57.203Z,3384
2016-06-25T07:01:57.181Z,3196
2016-06-25T07:02:57.160Z,3104
2016-06-25T07:03:57.814Z,3096
2016-06-25T07:04:57.782Z,3208
2016-06-25T07:05:57.768Z,3136
2016-06-25T07:06:57.750Z,3184
2016-06-25T07:07:57.090Z,3160
2016-06-25T07:08:57.088Z,3204
2016-06-25T07:09:56.418Z,3324
2016-06-25T07:10:57.059Z,3396
2016-06-25T07:11:57.692Z,3388
2016-06-25T07:12:57.658Z,3392
2016-06-25T07:13:57.641Z,3448
2016-06-25T07:14:57.625Z,3500
2016-06-25T07:15:56.979Z,3596
2016-06-25T07:16:57.607Z,3644
2016-06-25T07:17:57.591Z,3604
2016-06-25T07:18:57.575Z,3592
2016-06-25T07:19:57.567Z,3648
2016-06-25T07:20:57.549Z,3644
2016-06-25T07:21:56.883Z,3692
2016-06-25T07:22:56.876Z,3700
2016-06-25T07:23:56.858Z,3708
2016-06-25T07:24:56.848Z,3640
2016-06-25T07:25:56.836Z,3656
2016-06-25T07:26:57.451Z,3836
2016-06-25T07:27:56.159Z,3956
2016-06-25T07:28:56.779Z,4004
2016-06-25T07:29:57.397Z,4096
2016-06-25T07:30:56.754Z,4156
2016-06-25T07:31:56.116Z,4180
2016-06-25T07:32:57.378Z,4228
2016-06-25T07:33:56.729Z,4196
2016-06-25T07:34:57.337Z,4028
2016-06-25T07:35:57.330Z,3944
2016-06-25T07:36:55.409Z,3952
2016-06-25T07:37:56.679Z,3948
2016-06-25T07:38:57.285Z,3780
2016-06-25T07:39:56.613Z,3572
2016-06-25T07:40:57.278Z,3376
2016-06-25T07:41:56.594Z,2908
2016-06-25T07:42:56.619Z,2848
2016-06-25T07:43:57.229Z,2852
2016-06-25T07:44:57.193Z,3172
2016-06-25T07:45:57.177Z,2988
2016-06-25T07:46:57.157Z,2860
2016-06-25T07:47:55.869Z,2928
2016-06-25T07:48:57.142Z,3096
2016-06-25T07:49:56.493Z,3064
2016-06-25T07:50:56.461Z,3084
2016-06-25T07:51:57.098Z,3292
2016-06-25T07:52:56.429Z,3432
2016-06-25T07:53:57.051Z,3476
2016-06-25T07:54:56.417Z,3556
2016-06-25T07:55:55.741Z,3584
2016-06-25T07:56:57.008Z,3600
2016-06-25T07:57:55.728Z,3620
2016-06-25T07:58:56.992Z,3640
2016-06-25T07:59:55.685Z,3652
2016-06-25T08:00:55.699Z,3616
2016-06-25T08:01:56.966Z,3624
2016-06-25T08:02:56.293Z,3624
2016-06-25T08:03:56.931Z,3604
2016-06-25T08:04:56.899Z,2992
2016-06-25T08:05:55.637Z,3384
2016-06-25T08:06:56.237Z,2948
2016-06-25T08:07:56.887Z,2596
2016-06-25T08:08:56.844Z,2500
2016-06-25T08:09:56.209Z,2676
2016-06-25T08:10:55.536Z,2736
2016-06-25T08:11:56.798Z,2852
2016-06-25T08:12:56.788Z,3060
2016-06-25T08:13:56.785Z,3552
2016-06-25T08:14:56.127Z,3652
2016-06-25T08:15:56.749Z,3676
2016-06-25T08:16:56.741Z,3420
2016-06-25T08:17:55.449Z,3164
2016-06-25T08:18:55.441Z,3116
2016-06-25T08:19:56.700Z,3068
2016-06-25T08:20:56.702Z,3896
2016-06-25T08:21:55.391Z,4028
2016-06-25T08:22:56.655Z,4124
2016-06-25T08:23:56.055Z,4040
2016-06-25T08:24:56.638Z,3868
2016-06-25T08:25:55.992Z,3692
2016-06-25T08:26:56.682Z,3680
2016-06-25T08:27:56.023Z,3984
2016-06-25T08:28:56.591Z,4164
2016-06-25T08:29:55.914Z,4084
2016-06-25T08:30:55.870Z,4004
2016-06-25T08:31:55.864Z,3920
2016-06-25T08:32:56.501Z,3496
2016-06-25T08:33:56.481Z,2964
2016-06-25T08:34:56.475Z,3104
2016-06-25T08:35:56.442Z,3956
2016-06-25T08:36:56.450Z,4040
2016-06-25T08:37:55.805Z,3856
2016-06-25T08:38:55.802Z,3576
2016-06-25T08:39:56.420Z,3512
2016-06-25T08:40:55.790Z,3692
2016-06-25T08:41:55.093Z,3660
2016-06-25T08:42:55.712Z,3868
2016-06-25T08:43:56.346Z,3972
2016-06-25T08:44:55.714Z,4044
2016-06-25T08:45:55.186Z,4128
2016-06-25T08:46:56.321Z,4180
2016-06-25T08:47:56.299Z,4160
2016-06-25T08:48:56.276Z,4216
2016-06-25T08:49:55.634Z,4220
2016-06-25T08:50:55.598Z,4152
2016-06-25T08:51:56.221Z,3956
2016-06-25T08:52:56.228Z,3632
2016-06-25T08:53:55.587Z,3360
2016-06-25T08:54:55.549Z,3056
2016-06-25T08:55:55.554Z,2984
2016-06-25T08:56:55.554Z,3316
2016-06-25T08:57:55.502Z,3660
2016-06-25T08:58:56.145Z,4008
2016-06-25T08:59:55.485Z,4032
2016-06-25T09:00:56.101Z,4364
2016-06-25T09:01:55.450Z,4504
2016-06-25T09:02:56.087Z,4292
2016-06-25T09:03:55.417Z,4032
2016-06-25T09:04:56.054Z,4272
2016-06-25T09:05:54.764Z,4512
2016-06-25T09:06:56.042Z,4572
2016-06-25T09:07:54.727Z,4636
2016-06-25T09:08:56.000Z,4656
2016-06-25T09:09:54.051Z,4680
2016-06-25T09:10:55.958Z,4684
2016-06-25T09:11:55.325Z,4688
2016-06-25T09:12:55.938Z,4716
2016-06-25T09:13:55.288Z,4588
2016-06-25T09:14:55.928Z,3848
2016-06-25T09:15:55.263Z,3788
2016-06-25T09:16:55.886Z,3888
2016-06-25T09:17:55.265Z,4152
2016-06-25T09:18:55.214Z,4372
2016-06-25T09:19:55.845Z,4548
2016-06-25T09:20:55.813Z,4660
2016-06-25T09:21:55.165Z,4656
2016-06-25T09:22:55.911Z,4624
2016-06-25T09:23:55.265Z,4672
2016-06-25T09:24:55.897Z,4704
2016-06-25T09:25:55.188Z,4636
2016-06-25T09:26:55.124Z,4596
2016-06-25T09:27:55.742Z,4568
2016-06-25T09:28:55.105Z,4480
2016-06-25T09:29:55.700Z,3872
2016-06-25T09:30:55.769Z,3972
2016-06-25T09:31:55.713Z,4016
2016-06-25T09:32:55.708Z,3832
2016-06-25T09:33:55.054Z,4104
2016-06-25T09:34:54.989Z,4300
2016-06-25T09:35:55.619Z,4444
2016-06-25T09:36:55.089Z,4500
2016-06-25T09:37:54.967Z,4540
2016-06-25T09:38:54.301Z,4596
2016-06-25T09:39:55.562Z,4644
2016-06-25T09:40:55.569Z,4676
2016-06-25T09:41:54.909Z,4676
2016-06-25T09:42:54.245Z,4668
2016-06-25T09:43:55.530Z,4716
2016-06-25T09:44:55.478Z,4724
2016-06-25T09:45:55.494Z,4792
2016-06-25T09:46:54.897Z,4784
2016-06-25T09:47:55.485Z,4784
2016-06-25T09:48:54.797Z,4808
2016-06-25T09:49:55.418Z,4812
2016-06-25T09:50:54.798Z,4836
2016-06-25T09:51:55.432Z,4860
2016-06-25T09:52:54.781Z,4888
2016-06-25T09:53:55.395Z,4956
2016-06-25T09:54:54.088Z,5072
2016-06-25T09:55:54.734Z,5180
2016-06-25T09:56:54.695Z,5240
2016-06-25T09:57:54.045Z,5312
2016-06-25T09:58:54.671Z,5348
2016-06-25T09:59:55.268Z,5384
2016-06-25T10:00:54.704Z,5444
2016-06-25T10:01:54.633Z,5516
2016-06-25T10:02:55.277Z,5560
2016-06-25T10:03:54.612Z,5616
2016-06-25T10:04:54.566Z,5688
2016-06-25T10:05:55.226Z,5796
2016-06-25T10:06:53.920Z,5924
2016-06-25T10:07:55.174Z,5932
2016-06-25T10:08:55.180Z,5980
2016-06-25T10:09:54.340Z,5992
2016-06-25T10:10:55.149Z,6064
2016-06-25T10:11:55.171Z,6128
2016-06-25T10:12:55.128Z,6020
2016-06-25T10:13:54.460Z,5584
2016-06-25T10:14:53.828Z,6256
2016-06-25T10:15:55.080Z,6464
2016-06-25T10:16:55.062Z,6552
2016-06-25T10:17:55.044Z,6616
2016-06-25T10:18:53.771Z,6612
2016-06-25T10:19:55.033Z,6576
2016-06-25T10:20:54.370Z,6192
2016-06-25T10:21:54.979Z,6500
2016-06-25T10:22:54.975Z,6588
2016-06-25T10:23:55.875Z,6796
2016-06-25T10:24:54.956Z,6884
2016-06-25T10:25:54.951Z,6968
2016-06-25T10:26:54.920Z,6984
2016-06-25T10:27:54.913Z,7072
2016-06-25T10:28:54.258Z,7184
2016-06-25T10:29:54.897Z,7256
2016-06-25T10:30:54.882Z,7340
2016-06-25T10:31:54.873Z,7484
2016-06-25T10:32:54.205Z,7536
2016-06-25T10:33:52.912Z,7660
2016-06-25T10:34:54.196Z,7860
2016-06-25T10:35:54.202Z,7860
2016-06-25T10:36:54.807Z,7864
2016-06-25T10:37:54.151Z,7844
2016-06-25T10:38:54.153Z,7848
2016-06-25T10:39:54.136Z,7888
2016-06-25T10:40:54.783Z,7900
2016-06-25T10:41:54.105Z,7908
2016-06-25T10:42:55.305Z,7928
2016-06-25T10:43:54.057Z,7876
2016-06-25T10:44:54.702Z,7924
2016-06-25T10:45:53.410Z,7792
2016-06-25T10:46:54.682Z,7172
2016-06-25T10:47:54.655Z,7284
2016-06-25T10:48:53.997Z,7760
2016-06-25T10:49:54.643Z,7764
2016-06-25T10:50:54.005Z,7804
2016-06-25T10:51:54.617Z,7868
2016-06-25T10:52:53.963Z,7748
2016-06-25T10:53:54.582Z,7760
2016-06-25T10:54:53.931Z,7004
2016-06-25T10:55:53.955Z,7512
2016-06-25T10:56:53.295Z,7572
2016-06-25T10:57:54.548Z,7420
2016-06-25T10:58:53.908Z,7620
2016-06-25T10:59:53.854Z,7676
2016-06-25T11:00:53.215Z,7688
2016-06-25T11:01:53.826Z,7660
2016-06-25T11:02:53.205Z,7700
2016-06-25T11:03:53.823Z,7680
2016-06-25T11:04:53.194Z,7648
2016-06-25T11:05:53.801Z,7616
2016-06-25T11:06:54.407Z,7612
2016-06-25T11:07:53.784Z,7592
2016-06-25T11:08:53.764Z,7552
2016-06-25T11:09:53.747Z,7564
2016-06-25T11:10:54.385Z,7580
2016-06-25T11:11:54.371Z,7520
2016-06-25T11:12:53.733Z,7484
2016-06-25T11:13:54.348Z,7480
2016-06-25T11:14:53.049Z,7480
2016-06-25T11:15:54.320Z,7480
2016-06-25T11:16:54.310Z,7472
2016-06-25T11:17:53.011Z,7480
2016-06-25T11:18:53.690Z,7448
2016-06-25T11:19:53.673Z,7472
2016-06-25T11:20:53.619Z,7480
2016-06-25T11:21:53.623Z,7448
2016-06-25T11:22:54.233Z,7504
2016-06-25T11:23:54.213Z,7528
2016-06-25T11:24:54.201Z,7560
2016-06-25T11:25:52.939Z,7624
2016-06-25T11:26:53.547Z,7584
2016-06-25T11:27:54.174Z,7580
2016-06-25T11:28:53.525Z,7584
2016-06-25T11:29:54.181Z,7624
2016-06-25T11:30:54.154Z,7680
2016-06-25T11:31:54.126Z,7716
2016-06-25T11:32:53.463Z,7820
2016-06-25T11:33:52.817Z,8192
2016-06-25T11:34:54.102Z,32224
2016-06-25T11:35:54.095Z,67904
2016-06-25T11:36:53.433Z,69472
2016-06-25T11:37:52.778Z,60320
2016-06-25T11:38:52.768Z,46592
2016-06-25T11:39:54.046Z,33536
2016-06-25T11:40:53.386Z,46880
2016-06-25T11:41:53.397Z,77824
2016-06-25T11:42:53.366Z,106720
2016-06-25T11:43:53.386Z,110944
2016-06-25T11:44:53.997Z,111872
2016-06-25T11:45:54.018Z,108128
2016-06-25T11:46:52.691Z,103744
2016-06-25T11:47:54.010Z,102496
2016-06-25T11:48:53.999Z,110240
2016-06-25T11:49:53.960Z,110016
2016-06-25T11:50:52.685Z,108320
2016-06-25T11:51:53.963Z,112704
2016-06-25T11:52:53.958Z,110848
2016-06-25T11:53:53.951Z,107136
2016-06-25T11:54:53.303Z,106784
2016-06-25T11:55:53.317Z,105440
2016-06-25T11:56:53.301Z,108256
2016-06-25T11:57:53.921Z,114336
2016-06-25T11:58:53.283Z,110016
2016-06-25T11:59:53.264Z,103392
2016-06-25T12:00:52.647Z,108928
2016-06-25T12:01:53.266Z,112288
2016-06-25T12:02:53.911Z,112032
2016-06-25T12:03:53.894Z,108800
2016-06-25T12:04:53.257Z,105952
2016-06-25T12:05:53.271Z,107008
2016-06-25T12:06:53.273Z,108640
2016-06-25T12:07:53.289Z,102912
2016-06-25T12:08:53.252Z,87648
2016-06-25T12:09:54.035Z,64544
2016-06-25T12:10:53.922Z,40928
2016-06-25T12:11:51.977Z,25664
2016-06-25T12:12:53.245Z,20352
2016-06-25T12:13:53.223Z,19040
2016-06-25T12:14:53.863Z,18496
2016-06-25T12:15:53.243Z,18176
2016-06-25T12:16:52.604Z,17952
2016-06-25T12:17:51.966Z,17856
2016-06-25T12:18:53.219Z,17728
2016-06-25T12:19:53.866Z,17600
2016-06-25T12:20:53.874Z,17600
2016-06-25T12:21:53.869Z,17632
2016-06-25T12:22:53.214Z,18240
2016-06-25T12:23:52.594Z,20096
2016-06-25T12:24:53.864Z,25248
2016-06-25T12:25:53.222Z,28608
2016-06-25T12:26:53.214Z,24960
2016-06-25T12:27:53.206Z,20448
2016-06-25T12:28:53.854Z,18944
2016-06-25T12:29:53.831Z,18496
2016-06-25T12:30:53.242Z,18240
2016-06-25T12:31:53.188Z,18272
2016-06-25T12:32:53.841Z,18560
2016-06-25T12:33:53.203Z,18336
2016-06-25T12:34:53.834Z,17444
2016-06-25T12:35:53.192Z,17216
2016-06-25T12:36:53.206Z,17236
2016-06-25T12:37:53.180Z,17256
2016-06-25T12:38:53.814Z,17372
2016-06-25T12:39:53.187Z,17368
2016-06-25T12:40:53.180Z,17380
2016-06-25T12:41:53.184Z,17600
2016-06-25T12:42:52.533Z,17824
2016-06-25T12:43:53.162Z,17920
2016-06-25T12:44:53.153Z,18080
2016-06-25T12:45:53.176Z,18176
2016-06-25T12:46:53.156Z,18304
2016-06-25T12:47:53.811Z,18560
2016-06-25T12:48:53.827Z,18720
2016-06-25T12:49:53.169Z,19104
2016-06-25T12:50:53.146Z,19264
2016-06-25T12:51:53.811Z,19616
2016-06-25T12:52:53.806Z,19968
2016-06-25T12:53:53.149Z,20256
2016-06-25T12:54:52.508Z,20576
2016-06-25T12:55:53.781Z,21248
2016-06-25T12:56:53.149Z,22432
2016-06-25T12:57:52.496Z,24512
2016-06-25T12:58:52.503Z,33216
2016-06-25T12:59:52.502Z,50848
2016-06-25T13:00:53.803Z,71584
2016-06-25T13:01:53.122Z,91616
2016-06-25T13:02:53.773Z,108832
2016-06-25T13:03:53.130Z,105792
2016-06-25T13:04:53.148Z,103776
2016-06-25T13:05:53.756Z,108800
2016-06-25T13:06:53.127Z,108928
2016-06-25T13:07:53.135Z,107360
2016-06-25T13:08:53.120Z,102144
2016-06-25T13:09:52.489Z,100448
2016-06-25T13:10:53.759Z,103488
2016-06-25T13:11:53.138Z,102240
2016-06-25T13:12:53.112Z,102688
2016-06-25T13:13:53.122Z,105792
2016-06-25T13:14:53.752Z,105280
2016-06-25T13:15:53.742Z,106720
2016-06-25T13:16:53.099Z,109920
2016-06-25T13:17:53.747Z,108928
2016-06-25T13:18:53.294Z,103680
2016-06-25T13:19:53.777Z,101152
2016-06-25T13:20:53.735Z,106848
2016-06-25T13:21:53.134Z,110656
2016-06-25T13:22:53.105Z,109696
2016-06-25T13:23:53.084Z,109952
2016-06-25T13:24:53.104Z,109600
2016-06-25T13:25:53.735Z,105408
2016-06-25T13:26:53.109Z,102752
2016-06-25T13:27:53.075Z,104352
2016-06-25T13:28:53.099Z,98336
2016-06-25T13:29:53.073Z,100768
2016-06-25T13:30:53.727Z,101408
2016-06-25T13:31:53.753Z,106528
2016-06-25T13:32:52.420Z,106304
2016-06-25T13:33:53.101Z,102944
2016-06-25T13:34:53.074Z,102144
2016-06-25T13:35:53.733Z,101536
2016-06-25T13:36:53.055Z,106720
2016-06-25T13:37:53.064Z,106656
2016-06-25T13:38:53.717Z,103616
2016-06-25T13:39:53.187Z,111392
2016-06-25T13:40:53.819Z,117344
2016-06-25T13:41:52.553Z,115360
2016-06-25T13:42:52.425Z,113536